Time;durP1;ratioP1;P1;durP2;ratioP2;P2;SDS_P1;SDS_P2;PMS_P1;PMS_P2;Temp;Humidity;BMP_temperature;BMP_pressure;BME280_temperature;BME280_humidity;BME280_pressure;Samples;Min_cycle;Max_cycle;Signal;HPM_P1;HPM_P2
2022/04/01 00:01:56;;;;;;;4.50;3.50;;;6.00;99.90;;;;;;5106556;28;20208;-50
2022/04/01 00:04:42;;;;;;;4.73;3.60;;;6.00;99.90;;;;;;5105072;28;20234;-58
2022/04/01 00:07:26;;;;;;;3.40;2.73;;;6.00;99.90;;;;;;5105069;28;20276;-57
2022/04/01 00:10:12;;;;;;;4.93;3.57;;;6.00;99.90;;;;;;5107133;28;20258;-59
2022/04/01 00:12:57;;;;;;;4.10;3.67;;;5.90;99.90;;;;;;5104788;28;20212;-52
2022/04/01 00:15:41;;;;;;;4.20;3.07;;;5.90;99.90;;;;;;5106110;28;20217;-51
2022/04/01 00:18:26;;;;;;;6.40;3.10;;;5.90;99.90;;;;;;5106752;28;20227;-56
2022/04/01 00:21:09;;;;;;;4.40;2.93;;;5.90;99.90;;;;;;5104986;28;20196;-52
2022/04/01 00:23:54;;;;;;;2.53;2.33;;;6.00;99.90;;;;;;5105853;28;20345;-54
2022/04/01 00:26:38;;;;;;;3.73;2.13;;;6.00;99.90;;;;;;5105611;28;20246;-50
2022/04/01 00:29:23;;;;;;;3.07;2.60;;;5.90;99.90;;;;;;5104238;28;20200;-53
2022/04/01 00:32:07;;;;;;;2.83;2.40;;;5.90;99.90;;;;;;5105857;28;20213;-53
2022/04/01 00:34:53;;;;;;;23.37;11.80;;;5.90;99.90;;;;;;5104330;28;20280;-55
2022/04/01 00:37:38;;;;;;;7.53;5.27;;;6.00;99.90;;;;;;5104662;28;20352;-49
2022/04/01 00:40:22;;;;;;;4.47;2.30;;;6.10;99.90;;;;;;5105855;28;20277;-56
2022/04/01 00:43:07;;;;;;;3.60;2.50;;;5.90;99.90;;;;;;5104241;28;20350;-51
2022/04/01 00:45:53;;;;;;;7.73;4.40;;;5.80;99.90;;;;;;5104723;28;20223;-53
2022/04/01 00:48:38;;;;;;;5.93;4.23;;;5.70;99.90;;;;;;5105656;28;20196;-58
2022/04/01 00:51:22;;;;;;;2.40;2.00;;;5.80;99.90;;;;;;5104286;28;20196;-57
2022/04/01 00:54:06;;;;;;;2.23;2.07;;;5.80;99.90;;;;;;5105208;28;20268;-51
2022/04/01 00:56:51;;;;;;;3.17;2.13;;;5.70;99.90;;;;;;5104945;28;20268;-60
2022/04/01 00:59:36;;;;;;;2.83;2.27;;;5.80;99.90;;;;;;5104113;28;20192;-52
2022/04/01 01:02:21;;;;;;;2.40;2.20;;;5.70;99.90;;;;;;5104957;28;20215;-52
2022/04/01 01:05:05;;;;;;;2.87;2.33;;;5.70;99.90;;;;;;5104560;28;20203;-59
2022/04/01 01:07:49;;;;;;;3.30;2.93;;;5.70;99.90;;;;;;5104164;28;20192;-52
2022/04/01 01:10:35;;;;;;;4.47;2.73;;;5.60;99.90;;;;;;5105345;28;20208;-50
2022/04/01 01:13:19;;;;;;;2.83;2.20;;;5.70;99.90;;;;;;5103405;28;20250;-48
2022/04/01 01:16:04;;;;;;;1.80;1.70;;;5.50;99.90;;;;;;5104705;28;20227;-48
2022/04/01 01:19:01;;;;;;;3.17;2.10;;;5.50;99.90;;;;;;5105150;28;20204;-53
2022/04/01 01:21:49;;;;;;;4.33;2.53;;;5.50;99.90;;;;;;5104158;28;20238;-49
2022/04/01 01:24:36;;;;;;;2.40;2.20;;;5.50;99.90;;;;;;5119830;27;20220;-55
2022/04/01 01:27:21;;;;;;;2.03;1.93;;;5.50;99.90;;;;;;5104616;28;20203;-52
2022/04/01 01:30:07;;;;;;;2.23;2.03;;;5.50;99.90;;;;;;5123562;27;20203;-54
2022/04/01 01:32:53;;;;;;;2.90;2.10;;;5.50;99.90;;;;;;5124490;27;20199;-53
2022/04/01 01:35:40;;;;;;;3.20;2.03;;;5.50;99.90;;;;;;5122903;27;20222;-53
2022/04/01 01:38:24;;;;;;;2.33;2.13;;;5.50;99.90;;;;;;5122667;27;20199;-51
2022/04/01 01:41:09;;;;;;;2.30;2.10;;;5.50;99.90;;;;;;5125023;27;20231;-56
2022/04/01 01:43:53;;;;;;;3.13;2.27;;;5.50;99.90;;;;;;5123119;27;20226;-57
2022/04/01 01:46:38;;;;;;;2.17;1.97;;;5.40;99.90;;;;;;5123390;27;20196;-49
2022/04/01 01:49:23;;;;;;;2.23;2.03;;;5.40;99.90;;;;;;5124938;27;20188;-57
2022/04/01 01:55:11;;;;;;;1.90;1.80;;;5.40;99.90;;;;;;5125256;27;20200;-57
2022/04/01 01:57:56;;;;;;;2.37;2.03;;;5.40;99.90;;;;;;5125384;27;20199;-60
2022/04/01 02:00:42;;;;;;;2.37;2.07;;;5.30;99.90;;;;;;5123602;27;20276;-53
2022/04/01 02:03:26;;;;;;;2.00;1.77;;;5.30;99.90;;;;;;5123817;27;20344;-57
2022/04/01 02:06:10;;;;;;;4.20;2.13;;;5.20;99.90;;;;;;5125051;27;20296;-59
2022/04/01 02:08:54;;;;;;;2.50;1.77;;;5.20;99.90;;;;;;5123417;27;20249;-59
2022/04/01 02:11:38;;;;;;;2.40;1.73;;;5.20;99.90;;;;;;5124881;27;20191;-55
2022/04/01 02:14:23;;;;;;;1.67;1.67;;;5.10;99.90;;;;;;5123592;27;20237;-54
2022/04/01 02:17:08;;;;;;;2.40;1.97;;;5.10;99.90;;;;;;5122861;27;20199;-56
2022/04/01 02:19:52;;;;;;;2.67;2.23;;;5.10;99.90;;;;;;5124052;27;20196;-55
2022/04/01 02:22:38;;;;;;;1.60;1.50;;;5.10;99.90;;;;;;5122262;27;20647;-58
2022/04/01 02:25:23;;;;;;;2.40;1.93;;;5.00;99.90;;;;;;5123399;27;20234;-57
2022/04/01 02:28:08;;;;;;;2.17;1.97;;;5.00;99.90;;;;;;5124592;27;20209;-54
2022/04/01 02:30:52;;;;;;;2.03;1.87;;;5.00;99.90;;;;;;5122935;27;20194;-54
2022/04/01 02:33:38;;;;;;;3.37;1.80;;;5.00;99.90;;;;;;5124369;27;20272;-53
2022/04/01 02:36:22;;;;;;;1.57;1.47;;;4.90;99.90;;;;;;5123550;27;20199;-58
2022/04/01 02:39:07;;;;;;;3.10;1.70;;;4.90;99.90;;;;;;5122130;27;20191;-55
2022/04/01 02:41:52;;;;;;;1.90;1.80;;;4.90;99.90;;;;;;5124351;27;20231;-50
2022/04/01 02:44:36;;;;;;;2.97;1.87;;;4.80;99.90;;;;;;5122596;27;20239;-53
2022/04/01 02:47:21;;;;;;;2.43;1.90;;;4.90;99.90;;;;;;5122664;27;20198;-54
2022/04/01 02:50:07;;;;;;;2.73;2.53;;;4.90;99.90;;;;;;5124035;27;20257;-54
2022/04/01 02:52:51;;;;;;;2.10;1.90;;;4.80;99.90;;;;;;5122100;27;20198;-57
2022/04/01 02:55:37;;;;;;;3.97;2.93;;;4.70;99.90;;;;;;5122592;27;20330;-54
2022/04/01 02:58:22;;;;;;;3.27;2.57;;;4.80;99.90;;;;;;5123772;27;20191;-55
2022/04/01 03:01:07;;;;;;;2.47;2.27;;;4.80;99.90;;;;;;5122101;27;20241;-51
2022/04/01 03:03:52;;;;;;;2.77;2.17;;;4.70;99.90;;;;;;5123568;27;20250;-59
2022/04/01 03:06:44;;;;;;;2.13;1.73;;;4.70;99.90;;;;;;5123497;28;20183;-51
2022/04/01 03:09:30;;;;;;;2.70;2.50;;;4.70;99.90;;;;;;5136398;27;20302;-54
2022/04/01 03:12:14;;;;;;;3.37;2.27;;;4.80;99.90;;;;;;5124127;28;20216;-58
2022/04/01 03:14:58;;;;;;;2.53;2.33;;;4.70;99.90;;;;;;5123656;28;20295;-55
2022/04/01 03:17:44;;;;;;;3.17;2.00;;;4.80;99.90;;;;;;5122337;28;20251;-56
2022/04/01 03:20:29;;;;;;;2.90;2.30;;;4.80;99.90;;;;;;5123162;28;20215;-52
2022/04/01 03:23:13;;;;;;;2.73;2.53;;;4.80;99.90;;;;;;5122125;28;20233;-57
2022/04/01 03:25:58;;;;;;;4.93;2.23;;;4.60;99.90;;;;;;5122257;28;20192;-53
2022/04/01 03:28:43;;;;;;;1.63;1.53;;;4.60;99.90;;;;;;5123389;28;20194;-56
2022/04/01 03:31:28;;;;;;;1.67;1.57;;;4.60;99.90;;;;;;5122244;28;20191;-55
2022/04/01 03:34:12;;;;;;;2.30;1.93;;;4.60;99.90;;;;;;5137967;27;20196;-54
2022/04/01 03:36:57;;;;;;;2.40;1.67;;;4.60;99.90;;;;;;5123428;28;20188;-54
2022/04/01 03:39:42;;;;;;;2.70;2.50;;;4.60;99.90;;;;;;5121490;28;20276;-55
2022/04/01 03:42:32;;;;;;;2.10;1.93;;;4.60;99.90;;;;;;5123489;28;20223;-48
2022/04/01 03:45:17;;;;;;;2.03;1.93;;;4.60;99.90;;;;;;5123285;28;20207;-54
2022/04/01 03:48:10;;;;;;;2.00;1.90;;;4.60;99.90;;;;;;5121913;28;20188;-51
2022/04/01 03:50:59;;;;;;;2.53;2.37;;;4.60;99.90;;;;;;5138177;27;20195;-50
2022/04/01 03:53:58;;;;;;;2.17;1.97;;;4.60;99.90;;;;;;5122032;28;20226;-56
2022/04/01 03:56:48;;;;;;;3.37;2.43;;;4.60;99.90;;;;;;5121902;28;20341;-53
2022/04/01 03:59:44;;;;;;;2.90;2.20;;;4.60;99.90;;;;;;5137724;27;20200;-50
2022/04/01 04:02:34;;;;;;;3.70;3.10;;;4.50;99.90;;;;;;5122289;28;20207;-51
2022/04/01 04:05:23;;;;;;;1.67;1.57;;;4.40;99.90;;;;;;5121448;28;20273;-51
2022/04/01 04:08:11;;;;;;;3.90;2.83;;;4.40;99.90;;;;;;5123252;28;20183;-53
2022/04/01 04:10:56;;;;;;;2.27;2.13;;;4.30;99.90;;;;;;5122499;28;20349;-54
2022/04/01 04:13:44;;;;;;;1.83;1.57;;;4.30;99.90;;;;;;5121393;28;20241;-51
2022/04/01 04:16:44;;;;;;;1.83;1.73;;;4.40;99.90;;;;;;5122827;28;20199;-56
2022/04/01 04:19:44;;;;;;;16.40;8.37;;;4.30;99.90;;;;;;5121822;27;20271;-53
2022/04/01 04:22:34;;;;;;;2.73;2.37;;;4.50;99.90;;;;;;5124943;27;20183;-54
2022/04/01 04:25:24;;;;;;;2.23;1.93;;;4.70;99.90;;;;;;5126827;27;20213;-52
2022/04/01 04:28:12;;;;;;;2.70;2.50;;;4.60;99.90;;;;;;5125529;27;20296;-55
2022/04/01 04:31:07;;;;;;;2.03;1.93;;;4.70;99.90;;;;;;5125802;27;20186;-55
2022/04/01 04:33:55;;;;;;;7.63;3.10;;;4.80;99.90;;;;;;5132325;27;20294;-55
2022/04/01 04:36:43;;;;;;;2.83;2.10;;;4.70;99.90;;;;;;5134649;27;20203;-55
2022/04/01 04:39:33;;;;;;;2.63;2.13;;;4.80;99.90;;;;;;5136383;27;20260;-54
2022/04/01 04:42:18;;;;;;;2.30;2.10;;;4.70;99.90;;;;;;5133878;27;20273;-58
2022/04/01 04:45:04;;;;;;;2.57;2.40;;;4.60;99.90;;;;;;5124149;27;20234;-50
2022/04/01 04:47:49;;;;;;;2.30;2.10;;;4.70;99.90;;;;;;5131335;27;20198;-58
2022/04/01 04:50:36;;;;;;;4.60;2.40;;;4.60;99.90;;;;;;5135718;27;20248;-49
2022/04/01 04:53:20;;;;;;;2.27;2.00;;;4.60;99.90;;;;;;5136462;27;20211;-49
2022/04/01 04:56:07;;;;;;;2.97;2.17;;;4.50;99.90;;;;;;5131663;27;20195;-52
2022/04/01 04:58:54;;;;;;;2.23;2.03;;;4.60;99.90;;;;;;5126976;27;20235;-56
2022/04/01 05:01:59;;;;;;;1.70;1.60;;;4.50;99.90;;;;;;5133549;27;20199;-57
2022/04/01 05:05:07;;;;;;;2.13;1.93;;;4.40;99.90;;;;;;5157405;27;20275;-58
2022/04/01 05:08:18;;;;;;;1.80;1.70;;;4.20;99.90;;;;;;5131784;27;20329;-55
2022/04/01 05:11:29;;;;;;;3.80;2.47;;;4.30;99.90;;;;;;5132400;27;20208;-58
2022/04/01 05:14:36;;;;;;;1.80;1.70;;;4.30;99.90;;;;;;5120631;27;20230;-57
2022/04/01 05:17:52;;;;;;;3.20;1.27;;;4.40;99.90;;;;;;5133112;27;20205;-51
2022/04/01 05:20:39;;;;;;;1.70;1.57;;;4.30;99.90;;;;;;5129708;27;20213;-49
2022/04/01 05:23:49;;;;;;;2.43;2.13;;;4.30;99.90;;;;;;5121294;27;20234;-52
2022/04/01 05:26:41;;;;;;;1.83;1.73;;;4.30;99.90;;;;;;5123758;27;20283;-49
2022/04/01 05:29:31;;;;;;;2.70;2.03;;;4.20;99.90;;;;;;5122883;27;20192;-53
2022/04/01 05:32:20;;;;;;;1.93;1.83;;;4.20;99.90;;;;;;5118937;27;20191;-54
2022/04/01 05:35:04;;;;;;;2.50;1.73;;;4.40;99.90;;;;;;5122754;27;20272;-53
2022/04/01 05:37:49;;;;;;;2.03;1.93;;;4.20;99.90;;;;;;5126362;27;20231;-58
2022/04/01 05:40:36;;;;;;;2.40;2.17;;;4.20;99.90;;;;;;5123900;27;20230;-54
2022/04/01 05:43:21;;;;;;;2.47;2.30;;;4.30;99.90;;;;;;5119391;27;20255;-54
2022/04/01 05:46:06;;;;;;;1.87;1.77;;;4.20;99.90;;;;;;5119380;27;20238;-57
2022/04/01 05:48:55;;;;;;;1.40;1.33;;;4.30;99.90;;;;;;5123647;27;20199;-54
2022/04/01 05:51:40;;;;;;;1.43;1.43;;;4.20;99.90;;;;;;5116291;27;20378;-55
2022/04/01 05:54:28;;;;;;;2.57;1.90;;;4.30;99.90;;;;;;5103576;28;20188;-57
2022/04/01 05:57:16;;;;;;;2.60;2.20;;;4.30;99.90;;;;;;5103635;28;20188;-56
2022/04/01 06:00:05;;;;;;;1.70;1.60;;;4.30;99.90;;;;;;5108448;27;20252;-55
2022/04/01 06:03:16;;;;;;;1.83;1.73;;;4.20;99.90;;;;;;5120863;27;20642;-59
2022/04/01 06:06:27;;;;;;;2.30;1.57;;;4.20;99.90;;;;;;5104250;28;20235;-51
2022/04/01 06:09:14;;;;;;;2.60;2.00;;;4.20;99.90;;;;;;5105183;28;20191;-57
2022/04/01 06:12:14;;;;;;;1.80;1.70;;;4.20;99.90;;;;;;5114587;27;20239;-54
2022/04/01 06:15:05;;;;;;;2.93;2.70;;;4.20;99.90;;;;;;5129449;27;20186;-55
2022/04/01 06:18:19;;;;;;;1.40;1.30;;;4.20;99.90;;;;;;5146057;27;20191;-55
2022/04/01 06:21:07;;;;;;;1.90;1.80;;;4.30;99.90;;;;;;5128464;27;20200;-55
2022/04/01 06:24:10;;;;;;;3.17;1.90;;;4.40;99.90;;;;;;5102911;28;20278;-50
2022/04/01 06:27:02;;;;;;;1.67;1.57;;;4.30;99.90;;;;;;5104144;28;20196;-52
2022/04/01 06:30:11;;;;;;;3.17;1.70;;;4.20;99.90;;;;;;5104983;28;20211;-59
2022/04/01 06:33:15;;;;;;;1.17;1.17;;;4.20;99.90;;;;;;5102813;28;20249;-51
2022/04/01 06:36:04;;;;;;;2.30;2.10;;;4.30;99.90;;;;;;5117907;27;20265;-48
2022/04/01 06:39:03;;;;;;;2.00;1.83;;;4.20;99.90;;;;;;5124612;27;20192;-49
2022/04/01 06:41:53;;;;;;;2.03;1.83;;;4.10;99.90;;;;;;5123553;27;20251;-59
2022/04/01 06:44:37;;;;;;;2.90;1.63;;;4.00;99.90;;;;;;5122886;27;20246;-55
2022/04/01 06:47:22;;;;;;;1.70;1.60;;;3.90;99.90;;;;;;5124389;27;20219;-54
2022/04/01 06:50:07;;;;;;;2.13;1.63;;;3.90;99.90;;;;;;5123231;27;20187;-58
2022/04/01 06:52:53;;;;;;;2.37;1.83;;;4.10;99.90;;;;;;5123401;27;20345;-56
2022/04/01 06:55:38;;;;;;;1.63;1.53;;;4.10;99.90;;;;;;5124082;27;20188;-49
2022/04/01 06:58:26;;;;;;;1.20;1.17;;;4.00;99.90;;;;;;5122312;27;20283;-57
2022/04/01 07:01:12;;;;;;;1.43;1.37;;;4.00;99.90;;;;;;5119661;27;20238;-61
2022/04/01 07:03:57;;;;;;;2.00;1.37;;;4.10;99.90;;;;;;5111284;27;20220;-60
2022/04/01 07:06:42;;;;;;;3.47;1.57;;;4.10;99.90;;;;;;5101655;28;20204;-56
2022/04/01 07:09:27;;;;;;;1.83;1.57;;;4.10;99.90;;;;;;5103035;28;20204;-60
2022/04/01 07:12:11;;;;;;;4.10;2.30;;;4.20;99.90;;;;;;5116365;28;20306;-60
2022/04/01 07:14:56;;;;;;;2.00;1.80;;;4.30;99.90;;;;;;5124383;28;20203;-58
2022/04/01 07:17:42;;;;;;;2.53;1.97;;;4.40;99.90;;;;;;5153872;27;20278;-56
2022/04/01 07:20:27;;;;;;;2.67;2.20;;;4.50;99.90;;;;;;5153303;27;20199;-52
2022/04/01 07:23:11;;;;;;;1.87;1.63;;;4.30;99.90;;;;;;5133237;27;20235;-52
2022/04/01 07:25:56;;;;;;;1.77;1.67;;;4.30;99.90;;;;;;5118706;28;20196;-50
2022/04/01 07:28:40;;;;;;;1.80;1.70;;;4.30;99.90;;;;;;5117557;28;20338;-54
2022/04/01 07:34:33;;;;;;;1.87;1.77;;;4.50;99.90;;;;;;5094094;28;20265;-57
2022/04/01 07:37:22;;;;;;;4.67;3.00;;;4.60;99.90;;;;;;5123697;28;20203;-56
2022/04/01 07:40:07;;;;;;;3.60;2.53;;;4.60;99.90;;;;;;5124473;28;20198;-59
2022/04/01 07:42:53;;;;;;;2.00;1.90;;;4.70;99.90;;;;;;5124119;28;20290;-54
2022/04/01 07:45:37;;;;;;;2.73;2.00;;;4.80;99.90;;;;;;5123109;28;20295;-59
2022/04/01 07:48:21;;;;;;;2.20;1.90;;;4.80;99.90;;;;;;5157021;27;20208;-56
2022/04/01 07:51:07;;;;;;;2.53;1.90;;;4.70;99.90;;;;;;5132142;27;20188;-55
2022/04/01 07:53:51;;;;;;;2.27;2.07;;;4.80;99.90;;;;;;5130954;27;20567;-56
2022/04/01 07:56:36;;;;;;;1.40;1.37;;;4.80;99.90;;;;;;5138152;27;20271;-52
2022/04/01 07:59:24;;;;;;;1.47;1.37;;;4.70;99.90;;;;;;5128444;27;20211;-53
2022/04/01 08:02:09;;;;;;;1.20;1.20;;;4.90;99.90;;;;;;5129177;27;20203;-57
2022/04/01 08:04:54;;;;;;;2.27;1.83;;;4.90;99.90;;;;;;5157031;27;20226;-53
2022/04/01 08:07:38;;;;;;;2.83;1.90;;;5.00;99.90;;;;;;5155585;27;20187;-52
2022/04/01 08:10:22;;;;;;;2.60;2.10;;;5.20;99.90;;;;;;5157398;27;20210;-52
2022/04/01 08:13:07;;;;;;;2.63;2.07;;;5.10;99.90;;;;;;5136527;27;20261;-59
2022/04/01 08:15:52;;;;;;;4.00;3.40;;;5.10;99.90;;;;;;5105175;28;20276;-52
2022/04/01 08:18:36;;;;;;;2.73;2.53;;;5.20;99.90;;;;;;5106633;28;20200;-52
2022/04/01 08:21:20;;;;;;;2.03;1.73;;;5.30;99.90;;;;;;5105497;28;20195;-51
2022/04/01 08:24:07;;;;;;;1.37;1.30;;;5.10;99.90;;;;;;5105397;28;20250;-55
2022/04/01 08:26:51;;;;;;;1.70;1.60;;;5.20;99.90;;;;;;5106741;28;20224;-54
2022/04/01 08:29:36;;;;;;;1.80;1.70;;;5.30;99.90;;;;;;5105274;28;20249;-52
2022/04/01 08:32:21;;;;;;;1.33;1.33;;;5.40;99.90;;;;;;5105803;28;20270;-56
2022/04/01 08:35:07;;;;;;;1.20;1.20;;;5.40;99.90;;;;;;5107271;28;20336;-51
2022/04/01 08:37:55;;;;;;;1.10;1.10;;;5.50;99.90;;;;;;5128108;27;20321;-58
2022/04/01 08:40:39;;;;;;;1.50;1.47;;;5.60;99.90;;;;;;5128365;27;20235;-57
2022/04/01 08:43:30;;;;;;;2.60;1.90;;;5.70;99.90;;;;;;5128564;27;20299;-56
2022/04/01 08:46:16;;;;;;;1.33;1.27;;;5.60;99.90;;;;;;5123969;27;20211;-55
2022/04/01 08:49:01;;;;;;;1.40;1.30;;;5.60;99.90;;;;;;5125922;27;20205;-59
2022/04/01 08:51:45;;;;;;;1.50;1.40;;;5.70;99.90;;;;;;5119242;27;20312;-56
2022/04/01 08:54:34;;;;;;;1.10;0.80;;;5.60;99.90;;;;;;5121949;27;20425;-56
2022/04/01 08:57:19;;;;;;;0.97;0.97;;;5.80;99.90;;;;;;5125276;27;20241;-54
2022/04/01 09:00:23;;;;;;;0.97;0.97;;;5.80;99.90;;;;;;5124208;27;20237;-50
2022/04/01 09:03:10;;;;;;;1.13;1.07;;;5.80;99.90;;;;;;5118729;27;20191;-47
2022/04/01 09:05:56;;;;;;;0.80;0.80;;;5.90;99.90;;;;;;5118752;27;20188;-52
2022/04/01 09:08:42;;;;;;;0.83;0.77;;;6.00;99.90;;;;;;5118493;27;20281;-59
2022/04/01 09:11:27;;;;;;;0.73;0.70;;;6.10;99.90;;;;;;5123437;27;20206;-50
2022/04/01 09:14:22;;;;;;;1.00;1.00;;;6.00;99.90;;;;;;5154608;27;20245;-57
2022/04/01 09:17:10;;;;;;;2.93;1.37;;;5.70;99.90;;;;;;5103278;28;20199;-53
2022/04/01 09:20:09;;;;;;;3.07;1.20;;;5.80;99.90;;;;;;5123671;27;20195;-49
2022/04/01 09:22:58;;;;;;;1.90;1.70;;;6.00;99.90;;;;;;5127541;27;20240;-53
2022/04/01 09:25:50;;;;;;;1.37;1.27;;;6.10;99.90;;;;;;5128443;27;20211;-49
2022/04/01 09:28:38;;;;;;;1.63;1.50;;;6.20;99.90;;;;;;5134655;27;20195;-49
2022/04/01 09:31:25;;;;;;;0.80;0.80;;;6.20;99.90;;;;;;5105105;28;20324;-56
2022/04/01 09:34:12;;;;;;;1.57;1.17;;;6.10;99.90;;;;;;5112316;27;20195;-52
2022/04/01 09:36:57;;;;;;;1.57;1.47;;;6.10;99.90;;;;;;5125408;27;20208;-51
2022/04/01 09:39:43;;;;;;;1.20;1.20;;;6.30;99.90;;;;;;5125578;27;20253;-52
2022/04/01 09:42:27;;;;;;;1.07;1.00;;;6.40;99.90;;;;;;5109411;27;20219;-48
2022/04/01 09:45:16;;;;;;;1.00;1.00;;;6.50;99.90;;;;;;5104663;28;20231;-53
2022/04/01 09:48:00;;;;;;;1.83;1.73;;;6.60;99.90;;;;;;5104837;28;20246;-51
2022/04/01 09:50:58;;;;;;;1.37;1.27;;;6.50;99.90;;;;;;5114397;27;20195;-55
2022/04/01 09:53:53;;;;;;;7.10;4.20;;;6.50;99.90;;;;;;5125435;27;20213;-53
2022/04/01 09:56:43;;;;;;;3.13;2.67;;;6.40;99.90;;;;;;5125437;27;20196;-58
2022/04/01 09:59:33;;;;;;;2.47;1.50;;;6.50;99.90;;;;;;5124040;27;20195;-57
2022/04/01 10:02:18;;;;;;;2.00;1.77;;;6.50;99.90;;;;;;5154716;27;20200;-55
2022/04/01 10:05:03;;;;;;;1.70;1.60;;;6.50;99.90;;;;;;5123978;27;20222;-57
2022/04/01 10:07:47;;;;;;;5.43;2.70;;;6.50;99.90;;;;;;5123524;27;20200;-55
2022/04/01 10:10:33;;;;;;;2.67;2.33;;;6.30;99.90;;;;;;5125179;27;20343;-58
2022/04/01 10:13:22;;;;;;;1.40;1.30;;;6.20;99.90;;;;;;5123927;27;20272;-55
2022/04/01 10:16:09;;;;;;;1.10;1.10;;;6.20;99.90;;;;;;5123873;27;20199;-58
2022/04/01 10:18:57;;;;;;;1.67;1.57;;;6.00;99.90;;;;;;5124664;27;20196;-56
2022/04/01 10:21:43;;;;;;;1.47;1.20;;;6.20;99.90;;;;;;5114293;27;20196;-52
2022/04/01 10:24:47;;;;;;;1.17;1.17;;;6.10;99.90;;;;;;5103766;28;20220;-56
2022/04/01 10:27:40;;;;;;;1.53;1.43;;;6.20;99.90;;;;;;5105182;28;20188;-56
2022/04/01 10:30:25;;;;;;;22.40;11.47;;;6.20;99.90;;;;;;5123707;27;20288;-56
2022/04/01 10:33:21;;;;;;;6.80;4.07;;;6.20;99.90;;;;;;5118910;27;20184;-55
2022/04/01 10:36:15;;;;;;;5.97;4.13;;;6.40;99.90;;;;;;5118854;27;20273;-55
2022/04/01 10:39:07;;;;;;;3.10;2.20;;;6.60;99.90;;;;;;5111160;27;20218;-55
2022/04/01 10:42:11;;;;;;;2.67;2.20;;;6.70;99.90;;;;;;5127939;27;20254;-48
2022/04/01 10:44:58;;;;;;;1.50;1.40;;;6.80;99.90;;;;;;5132201;27;20219;-59
2022/04/01 10:51:37;;;;;;;1.50;1.40;;;7.00;99.90;;;;;;5133832;27;20214;-57
2022/04/01 10:54:22;;;;;;;1.43;1.33;;;7.10;99.90;;;;;;5149136;27;20200;-55
2022/04/01 10:57:07;;;;;;;1.70;1.60;;;6.90;99.90;;;;;;5128883;27;20240;-56
2022/04/01 10:59:52;;;;;;;2.63;1.50;;;6.90;99.90;;;;;;5123056;27;20231;-54
2022/04/01 11:02:37;;;;;;;1.00;1.00;;;6.80;99.90;;;;;;5123298;27;20231;-57
2022/04/01 11:05:29;;;;;;;1.80;1.70;;;7.00;99.90;;;;;;5132601;27;20228;-56
2022/04/01 11:08:15;;;;;;;1.40;1.37;;;7.00;99.90;;;;;;5101585;28;20245;-50
2022/04/01 11:11:05;;;;;;;1.37;1.30;;;7.20;99.90;;;;;;5104791;28;20231;-59
2022/04/01 11:14:06;;;;;;;1.30;1.20;;;7.20;99.90;;;;;;5122693;28;20253;-58
2022/04/01 11:16:51;;;;;;;1.43;1.40;;;7.00;99.90;;;;;;5121601;28;20199;-59
2022/04/01 11:19:35;;;;;;;1.97;1.87;;;6.90;99.90;;;;;;5158116;27;20268;-51
2022/04/01 11:22:44;;;;;;;2.13;2.03;;;6.80;99.90;;;;;;5129856;27;20190;-60
2022/04/01 11:25:28;;;;;;;1.93;1.73;;;6.80;99.90;;;;;;5129960;27;20191;-56
2022/04/01 11:28:16;;;;;;;1.80;1.70;;;6.90;99.90;;;;;;5127599;27;20195;-59
2022/04/01 11:31:02;;;;;;;2.00;1.90;;;7.00;99.90;;;;;;5125480;27;20199;-54
2022/04/01 11:33:57;;;;;;;2.33;2.13;;;6.90;99.90;;;;;;5126602;27;20195;-56
2022/04/01 11:36:42;;;;;;;2.07;1.97;;;6.90;99.90;;;;;;5127357;27;20207;-51
2022/04/01 11:39:27;;;;;;;6.20;4.50;;;6.60;99.90;;;;;;5125873;27;20195;-57
2022/04/01 11:42:11;;;;;;;5.27;3.03;;;6.60;99.90;;;;;;5119256;27;20223;-56
2022/04/01 11:44:58;;;;;;;2.47;2.27;;;6.70;99.90;;;;;;5156625;27;20226;-58
2022/04/01 11:47:44;;;;;;;3.07;2.87;;;6.70;99.90;;;;;;5154394;27;20200;-59
2022/04/01 11:50:29;;;;;;;3.30;3.00;;;6.50;99.90;;;;;;5156045;27;20188;-58
2022/04/01 11:53:22;;;;;;;3.60;3.30;;;6.40;99.90;;;;;;5120905;27;20254;-60
2022/04/01 11:56:08;;;;;;;3.50;3.20;;;6.60;99.90;;;;;;5119473;27;20227;-53
2022/04/01 11:58:55;;;;;;;3.87;2.70;;;6.60;99.90;;;;;;5121257;27;20321;-57
2022/04/01 12:01:55;;;;;;;2.10;2.00;;;6.50;99.90;;;;;;5105536;27;20223;-59
2022/04/01 12:04:39;;;;;;;2.97;2.00;;;6.50;99.90;;;;;;5127557;27;20251;-61
2022/04/01 12:10:29;;;;;;;1.50;1.40;;;6.50;99.90;;;;;;5129912;27;20205;-60
2022/04/01 12:13:13;;;;;;;1.97;1.77;;;6.60;99.90;;;;;;5144547;27;20194;-59
2022/04/01 12:15:59;;;;;;;1.83;1.73;;;6.50;99.90;;;;;;5134635;27;20392;-53
2022/04/01 12:18:49;;;;;;;1.60;1.50;;;6.60;99.90;;;;;;5128709;27;20656;-55
2022/04/01 12:21:33;;;;;;;1.97;1.87;;;6.50;99.90;;;;;;5123378;27;20207;-59
2022/04/01 12:24:19;;;;;;;1.83;1.73;;;6.60;99.90;;;;;;5135821;27;20275;-56
2022/04/01 12:27:09;;;;;;;2.53;2.30;;;6.50;99.90;;;;;;5145268;27;20202;-57
2022/04/01 12:29:53;;;;;;;2.37;2.17;;;6.40;99.90;;;;;;5146718;27;20191;-56
2022/04/01 12:32:38;;;;;;;2.20;2.00;;;6.20;99.90;;;;;;5145703;27;20198;-59
2022/04/01 12:35:23;;;;;;;2.07;1.90;;;6.00;99.90;;;;;;5112622;27;20568;-59
2022/04/01 12:38:10;;;;;;;2.33;1.90;;;6.00;99.90;;;;;;5132565;27;20311;-57
2022/04/01 12:41:00;;;;;;;2.20;2.10;;;6.10;99.90;;;;;;5139966;27;20222;-55
2022/04/01 12:43:49;;;;;;;3.00;2.13;;;6.10;99.90;;;;;;5125242;27;20215;-60
2022/04/01 12:46:34;;;;;;;2.03;1.93;;;6.00;99.90;;;;;;5128013;27;20219;-52
2022/04/01 12:49:20;;;;;;;2.37;2.17;;;6.20;99.90;;;;;;5110009;27;20199;-55
2022/04/01 12:52:12;;;;;;;2.40;2.20;;;6.10;99.90;;;;;;5115597;27;20199;-59
2022/04/01 12:55:01;;;;;;;3.13;1.67;;;6.10;99.90;;;;;;5129461;27;20183;-56
2022/04/01 12:57:51;;;;;;;2.70;2.50;;;6.20;99.90;;;;;;5124037;27;20266;-52
2022/04/01 13:00:36;;;;;;;3.50;2.77;;;6.10;99.90;;;;;;5123596;27;20236;-53
2022/04/01 13:03:26;;;;;;;2.00;1.90;;;6.20;99.90;;;;;;5125021;27;20602;-52
2022/04/01 13:06:12;;;;;;;2.77;2.30;;;6.30;99.90;;;;;;5126211;27;20237;-56
2022/04/01 13:09:08;;;;;;;2.33;2.03;;;6.10;99.90;;;;;;5141403;27;20182;-54
2022/04/01 13:11:58;;;;;;;1.87;1.77;;;6.10;99.90;;;;;;5126567;27;20232;-55
2022/04/01 13:14:42;;;;;;;2.70;2.43;;;6.20;99.90;;;;;;5130652;27;20223;-55
2022/04/01 13:17:27;;;;;;;2.47;2.10;;;6.30;99.90;;;;;;5128213;27;20240;-52
2022/04/01 13:20:14;;;;;;;1.90;1.80;;;6.30;99.90;;;;;;5125726;27;20196;-56
2022/04/01 13:23:03;;;;;;;2.63;1.93;;;6.20;99.90;;;;;;5124384;27;20207;-51
2022/04/01 13:25:47;;;;;;;2.83;2.63;;;6.30;99.90;;;;;;5105342;28;20200;-52
2022/04/01 13:28:31;;;;;;;4.13;2.53;;;6.30;99.90;;;;;;5105965;28;20188;-55
2022/04/01 13:31:16;;;;;;;3.73;3.13;;;6.30;99.90;;;;;;5104197;28;20257;-52
2022/04/01 13:34:00;;;;;;;3.70;2.27;;;6.30;99.90;;;;;;5105368;28;20275;-53
2022/04/01 13:36:45;;;;;;;2.37;2.17;;;6.10;99.90;;;;;;5104074;28;20196;-52
2022/04/01 13:39:29;;;;;;;2.20;2.10;;;6.10;99.90;;;;;;5104023;28;20200;-50
2022/04/01 13:42:16;;;;;;;2.27;2.07;;;6.20;99.90;;;;;;5105338;28;20340;-51
2022/04/01 13:45:00;;;;;;;2.50;2.40;;;6.20;99.90;;;;;;5104191;28;20224;-51
2022/04/01 13:47:45;;;;;;;2.27;2.13;;;6.30;99.90;;;;;;5104251;28;20192;-53
2022/04/01 13:50:29;;;;;;;3.87;3.13;;;6.20;99.90;;;;;;5105490;28;20199;-53
2022/04/01 13:53:14;;;;;;;2.77;2.57;;;6.10;99.90;;;;;;5103468;28;20200;-54
2022/04/01 13:55:59;;;;;;;2.33;2.13;;;6.10;99.90;;;;;;5105040;28;20622;-53
2022/04/01 13:58:44;;;;;;;5.57;2.73;;;6.10;99.90;;;;;;5104819;28;20215;-50
2022/04/01 14:01:29;;;;;;;2.67;2.37;;;6.00;99.90;;;;;;5103914;28;20200;-49
2022/04/01 14:04:14;;;;;;;3.90;2.93;;;6.10;99.90;;;;;;5105078;28;20216;-53
2022/04/01 14:06:58;;;;;;;3.60;2.50;;;6.20;99.90;;;;;;5104438;28;20228;-53
2022/04/01 14:09:44;;;;;;;3.73;2.50;;;6.10;99.90;;;;;;5102963;28;20199;-52
2022/04/01 14:12:29;;;;;;;3.77;2.50;;;6.00;99.90;;;;;;5104872;28;20185;-50
2022/04/01 14:15:14;;;;;;;2.60;2.40;;;5.80;99.90;;;;;;5103654;28;20242;-52
2022/04/01 14:17:58;;;;;;;2.70;2.50;;;6.00;99.90;;;;;;5103552;28;20238;-48
2022/04/01 14:20:43;;;;;;;2.77;2.57;;;6.00;99.90;;;;;;5104735;28;20183;-53
2022/04/01 14:23:30;;;;;;;2.97;2.73;;;5.90;99.90;;;;;;5103124;28;20237;-52
2022/04/01 14:26:14;;;;;;;2.97;2.67;;;5.70;99.90;;;;;;5104837;28;20208;-53
2022/04/01 14:30:16;;;;;;;2.97;2.77;;;5.70;99.90;;;;;;5105276;28;20250;-52
2022/04/01 14:32:03;;;;;;;3.00;2.60;;;5.50;99.90;;;;;;5104189;28;20231;-49
2022/04/01 14:34:49;;;;;;;3.60;3.13;;;5.40;99.90;;;;;;5104353;28;20188;-52
2022/04/01 14:37:34;;;;;;;3.97;3.57;;;5.40;99.90;;;;;;5113794;27;20195;-59
2022/04/01 14:40:20;;;;;;;3.47;2.90;;;5.40;99.90;;;;;;5118882;27;20205;-52
2022/04/01 14:43:04;;;;;;;2.90;2.70;;;5.40;99.90;;;;;;5124345;27;20272;-54
2022/04/01 14:45:49;;;;;;;2.83;2.50;;;5.40;99.90;;;;;;5121629;27;20261;-53
2022/04/01 14:48:35;;;;;;;5.10;3.63;;;5.40;99.90;;;;;;5120995;27;20297;-59
2022/04/01 14:51:20;;;;;;;5.70;4.57;;;5.40;99.90;;;;;;5121349;27;20195;-55
2022/04/01 14:54:04;;;;;;;5.13;3.00;;;5.20;99.90;;;;;;5122427;27;20184;-56
2022/04/01 14:56:49;;;;;;;4.33;3.10;;;5.30;99.90;;;;;;5120737;27;20233;-51
2022/04/01 14:59:35;;;;;;;3.70;2.80;;;5.40;99.90;;;;;;5122687;27;20195;-49